Aeroporto :
LOGIN :

Iscrizione | Disclaimer

   EN    FR    IT 

 










Sommario :    VFR   VFR Marginale   IFR   IFR Intensivo   IFR Molto Intensivo
Visibilità : 
Base nubi : 
>= 8 km
>= 3000ft
5 / 8 km
1000 / 3000 ft
1500m / 5 km
500 / 1000 ft
800 / 1500m
200 / 500 ft
< 800m
< 200 ft
Simboli :   Temporali  Nebbia  Neve Forte  Precipitazioni Forti  Vento > 20 kt
SIGMETs :   Varie  Temporali  Ghiacco  Turbolenza  Onda orograficha  Ceneri Vulcaniche






- Altitudine del aeroporto : 935 ft


EBFS - Florennes

ULTIMO METAR :
  • 230125Z AUTO 10007KT 9999 FEW070/// BKN090/// BKN100/// 06/02 Q0996 BLU

METARs OBSOLETI :
  • 230055Z AUTO 08007KT 9999 FEW065/// BKN090/// OVC110/// 06/02 Q0996 BLU
  • 230025Z AUTO 09010KT 9999 FEW055/// BKN080/// OVC100/// 07/02 Q0996 BLU
  • 222355Z AUTO 09009KT 9999 FEW049/// BKN085/// BKN100/// 06/02 Q0997 BLU
  • 222325Z AUTO 10010KT 9999 FEW048/// SCT085/// OVC100/// 06/02 Q0997 BLU
  • 222255Z AUTO 10010KT 9999 FEW060/// BKN080/// BKN120/// 07/02 Q0998 BLU

TAF TAF EBFS
Valido dal 22 a 19 ore il 23 a 07 ore UTC


221541Z 2219/2307 12013KT 9999 FEW050 SCT200
BECMG 2219/2221 SCT060 SCT080



MetMap, La meteo Aeronautica in un colpo d'occhio ! - Copyright ORBIFLY Dicembre 2007 - Disclaimer

ORBIFLY MET'MAP TEAM :

Programmazione e sviluppo : Alexandra Zaïnal
Concezione e sviluppo : Baudouin d'Aumeries
Co-Programmazione e sviluppo : Marc-Olivier Méhu
Supporto tecnico e logistico : Manuel Goepfert
Aiuto per la traduzione : Arnaldo La Scala

Contatto : metmap@orbifly.com




FONTI E CREDITI :

   NOAA